sensor_id;sensor_type;location;lat;lon;timestamp;temperature;humidity
21481;DHT22;10902;48.158;8.634;2023-07-02T00:00:32;14.80;99.90
21481;DHT22;10902;48.158;8.634;2023-07-02T00:03:18;14.80;99.90
21481;DHT22;10902;48.158;8.634;2023-07-02T00:06:07;14.80;99.90
21481;DHT22;10902;48.158;8.634;2023-07-02T00:08:52;14.80;99.90
21481;DHT22;10902;48.158;8.634;2023-07-02T00:11:39;14.80;99.90
21481;DHT22;10902;48.158;8.634;2023-07-02T00:14:25;14.70;99.90
21481;DHT22;10902;48.158;8.634;2023-07-02T00:17:11;14.70;99.90
21481;DHT22;10902;48.158;8.634;2023-07-02T00:19:59;14.70;99.90
21481;DHT22;10902;48.158;8.634;2023-07-02T00:22:49;14.70;99.90
21481;DHT22;10902;48.158;8.634;2023-07-02T00:25:34;14.70;99.90
21481;DHT22;10902;48.158;8.634;2023-07-02T00:28:20;14.70;99.90
21481;DHT22;10902;48.158;8.634;2023-07-02T00:31:06;14.70;99.90
21481;DHT22;10902;48.158;8.634;2023-07-02T00:33:53;14.80;99.90
21481;DHT22;10902;48.158;8.634;2023-07-02T00:36:39;14.80;99.90
21481;DHT22;10902;48.158;8.634;2023-07-02T00:39:27;14.90;99.90
21481;DHT22;10902;48.158;8.634;2023-07-02T00:42:13;14.90;99.90
21481;DHT22;10902;48.158;8.634;2023-07-02T00:44:59;14.90;99.90
21481;DHT22;10902;48.158;8.634;2023-07-02T00:47:48;15.00;99.90
21481;DHT22;10902;48.158;8.634;2023-07-02T00:50:34;14.90;99.90
21481;DHT22;10902;48.158;8.634;2023-07-02T00:53:20;14.90;99.90
21481;DHT22;10902;48.158;8.634;2023-07-02T00:56:05;14.90;99.90
21481;DHT22;10902;48.158;8.634;2023-07-02T00:58:53;14.70;99.90
21481;DHT22;10902;48.158;8.634;2023-07-02T01:01:39;14.60;99.90
21481;DHT22;10902;48.158;8.634;2023-07-02T01:04:25;14.60;99.90
21481;DHT22;10902;48.158;8.634;2023-07-02T01:07:12;14.60;99.90
21481;DHT22;10902;48.158;8.634;2023-07-02T01:09:58;14.70;99.90
21481;DHT22;10902;48.158;8.634;2023-07-02T01:12:44;14.70;99.90
21481;DHT22;10902;48.158;8.634;2023-07-02T01:15:32;14.80;99.90
21481;DHT22;10902;48.158;8.634;2023-07-02T01:18:18;14.90;99.90
21481;DHT22;10902;48.158;8.634;2023-07-02T01:21:05;14.90;99.90
21481;DHT22;10902;48.158;8.634;2023-07-02T01:23:51;14.80;99.90
21481;DHT22;10902;48.158;8.634;2023-07-02T01:26:37;14.80;99.90
21481;DHT22;10902;48.158;8.634;2023-07-02T01:29:23;14.80;99.90
21481;DHT22;10902;48.158;8.634;2023-07-02T01:32:08;14.70;99.90
21481;DHT22;10902;48.158;8.634;2023-07-02T01:34:54;14.70;99.90
21481;DHT22;10902;48.158;8.634;2023-07-02T01:37:40;14.60;99.90
21481;DHT22;10902;48.158;8.634;2023-07-02T01:40:25;14.60;99.90
21481;DHT22;10902;48.158;8.634;2023-07-02T01:43:12;14.60;99.90
21481;DHT22;10902;48.158;8.634;2023-07-02T01:45:57;14.70;99.90
21481;DHT22;10902;48.158;8.634;2023-07-02T01:48:43;14.60;99.90
21481;DHT22;10902;48.158;8.634;2023-07-02T01:51:29;14.60;99.90
21481;DHT22;10902;48.158;8.634;2023-07-02T01:54:14;14.60;99.90
21481;DHT22;10902;48.158;8.634;2023-07-02T01:57:00;14.50;99.90
21481;DHT22;10902;48.158;8.634;2023-07-02T01:59:46;14.50;99.90
21481;DHT22;10902;48.158;8.634;2023-07-02T02:02:31;14.60;99.90
21481;DHT22;10902;48.158;8.634;2023-07-02T02:05:19;14.70;99.90
21481;DHT22;10902;48.158;8.634;2023-07-02T02:08:15;14.80;99.90
21481;DHT22;10902;48.158;8.634;2023-07-02T02:11:00;14.80;99.90
21481;DHT22;10902;48.158;8.634;2023-07-02T02:13:46;14.80;99.90
21481;DHT22;10902;48.158;8.634;2023-07-02T02:16:32;14.80;99.90
21481;DHT22;10902;48.158;8.634;2023-07-02T02:19:19;14.80;99.90
21481;DHT22;10902;48.158;8.634;2023-07-02T02:22:05;14.90;99.90
21481;DHT22;10902;48.158;8.634;2023-07-02T02:24:51;15.00;99.90
21481;DHT22;10902;48.158;8.634;2023-07-02T02:27:36;15.10;99.90
21481;DHT22;10902;48.158;8.634;2023-07-02T02:30:22;15.00;99.90
21481;DHT22;10902;48.158;8.634;2023-07-02T02:33:07;14.90;99.90
21481;DHT22;10902;48.158;8.634;2023-07-02T02:35:53;14.80;99.90
21481;DHT22;10902;48.158;8.634;2023-07-02T02:38:39;14.70;99.90
21481;DHT22;10902;48.158;8.634;2023-07-02T02:41:25;14.60;99.90
21481;DHT22;10902;48.158;8.634;2023-07-02T02:44:10;14.40;99.90
21481;DHT22;10902;48.158;8.634;2023-07-02T02:46:56;14.40;99.90
21481;DHT22;10902;48.158;8.634;2023-07-02T02:49:41;14.30;99.90
21481;DHT22;10902;48.158;8.634;2023-07-02T02:52:27;14.30;99.90
21481;DHT22;10902;48.158;8.634;2023-07-02T02:55:12;14.30;99.90
21481;DHT22;10902;48.158;8.634;2023-07-02T02:57:58;14.30;99.90
21481;DHT22;10902;48.158;8.634;2023-07-02T03:00:44;14.40;99.90
21481;DHT22;10902;48.158;8.634;2023-07-02T03:03:31;14.60;99.90
21481;DHT22;10902;48.158;8.634;2023-07-02T03:06:19;14.80;99.90
21481;DHT22;10902;48.158;8.634;2023-07-02T03:09:05;14.80;99.90
21481;DHT22;10902;48.158;8.634;2023-07-02T03:11:50;14.70;99.90
21481;DHT22;10902;48.158;8.634;2023-07-02T03:14:36;14.60;99.90
21481;DHT22;10902;48.158;8.634;2023-07-02T03:17:22;14.50;99.90
21481;DHT22;10902;48.158;8.634;2023-07-02T03:20:08;14.50;99.90
21481;DHT22;10902;48.158;8.634;2023-07-02T03:22:54;14.40;99.90
21481;DHT22;10902;48.158;8.634;2023-07-02T03:25:39;14.50;99.90
21481;DHT22;10902;48.158;8.634;2023-07-02T03:28:25;14.70;99.90
21481;DHT22;10902;48.158;8.634;2023-07-02T03:31:10;14.60;99.90
21481;DHT22;10902;48.158;8.634;2023-07-02T03:33:56;14.40;99.90
21481;DHT22;10902;48.158;8.634;2023-07-02T03:36:42;14.30;99.90
21481;DHT22;10902;48.158;8.634;2023-07-02T03:39:29;14.30;99.90
21481;DHT22;10902;48.158;8.634;2023-07-02T03:42:15;14.40;99.90
21481;DHT22;10902;48.158;8.634;2023-07-02T03:45:00;14.30;99.90
21481;DHT22;10902;48.158;8.634;2023-07-02T03:47:46;14.30;99.90
21481;DHT22;10902;48.158;8.634;2023-07-02T03:50:32;14.20;99.90
21481;DHT22;10902;48.158;8.634;2023-07-02T03:53:17;14.10;99.90
21481;DHT22;10902;48.158;8.634;2023-07-02T03:56:03;14.10;99.90
21481;DHT22;10902;48.158;8.634;2023-07-02T03:58:49;14.00;99.90
21481;DHT22;10902;48.158;8.634;2023-07-02T04:01:34;14.00;99.90
21481;DHT22;10902;48.158;8.634;2023-07-02T04:04:20;14.00;99.90
21481;DHT22;10902;48.158;8.634;2023-07-02T04:07:05;14.00;99.90
21481;DHT22;10902;48.158;8.634;2023-07-02T04:09:51;13.90;99.90
21481;DHT22;10902;48.158;8.634;2023-07-02T04:12:37;14.00;99.90
21481;DHT22;10902;48.158;8.634;2023-07-02T04:15:22;13.90;99.90
21481;DHT22;10902;48.158;8.634;2023-07-02T04:18:09;14.00;99.90
21481;DHT22;10902;48.158;8.634;2023-07-02T04:20:56;14.00;99.90
21481;DHT22;10902;48.158;8.634;2023-07-02T04:23:42;14.00;99.90
21481;DHT22;10902;48.158;8.634;2023-07-02T04:26:28;14.00;99.90
21481;DHT22;10902;48.158;8.634;2023-07-02T04:29:14;14.00;99.90
21481;DHT22;10902;48.158;8.634;2023-07-02T04:32:00;14.00;99.90
21481;DHT22;10902;48.158;8.634;2023-07-02T04:34:46;14.10;99.90
21481;DHT22;10902;48.158;8.634;2023-07-02T04:37:31;14.10;99.90
21481;DHT22;10902;48.158;8.634;2023-07-02T04:40:17;14.10;99.90
21481;DHT22;10902;48.158;8.634;2023-07-02T04:43:02;14.20;99.90
21481;DHT22;10902;48.158;8.634;2023-07-02T04:45:49;14.20;99.90
21481;DHT22;10902;48.158;8.634;2023-07-02T04:48:34;14.20;99.90
21481;DHT22;10902;48.158;8.634;2023-07-02T04:51:20;14.30;99.90
21481;DHT22;10902;48.158;8.634;2023-07-02T04:54:07;14.40;99.90
21481;DHT22;10902;48.158;8.634;2023-07-02T04:56:52;14.40;99.90
21481;DHT22;10902;48.158;8.634;2023-07-02T04:59:38;14.40;99.90
21481;DHT22;10902;48.158;8.634;2023-07-02T05:02:23;14.50;99.90
21481;DHT22;10902;48.158;8.634;2023-07-02T05:05:09;14.50;99.90
21481;DHT22;10902;48.158;8.634;2023-07-02T05:07:55;14.50;99.90
21481;DHT22;10902;48.158;8.634;2023-07-02T05:10:40;14.60;99.90
21481;DHT22;10902;48.158;8.634;2023-07-02T05:13:26;14.60;99.90
21481;DHT22;10902;48.158;8.634;2023-07-02T05:16:12;14.70;99.90
21481;DHT22;10902;48.158;8.634;2023-07-02T05:18:58;14.70;99.90
21481;DHT22;10902;48.158;8.634;2023-07-02T05:21:44;14.70;99.90
21481;DHT22;10902;48.158;8.634;2023-07-02T05:24:29;14.80;99.90
21481;DHT22;10902;48.158;8.634;2023-07-02T05:27:15;14.80;99.90
21481;DHT22;10902;48.158;8.634;2023-07-02T05:30:01;14.70;99.90
21481;DHT22;10902;48.158;8.634;2023-07-02T05:32:46;14.60;99.90
21481;DHT22;10902;48.158;8.634;2023-07-02T05:35:32;14.60;99.90
21481;DHT22;10902;48.158;8.634;2023-07-02T05:38:18;14.60;99.90
21481;DHT22;10902;48.158;8.634;2023-07-02T05:41:04;14.60;99.90
21481;DHT22;10902;48.158;8.634;2023-07-02T05:43:49;14.80;99.90
21481;DHT22;10902;48.158;8.634;2023-07-02T05:46:35;14.90;99.90
21481;DHT22;10902;48.158;8.634;2023-07-02T05:49:20;15.00;99.90
21481;DHT22;10902;48.158;8.634;2023-07-02T05:52:06;15.20;99.90
21481;DHT22;10902;48.158;8.634;2023-07-02T05:54:52;15.40;99.90
21481;DHT22;10902;48.158;8.634;2023-07-02T05:57:38;15.50;99.90
21481;DHT22;10902;48.158;8.634;2023-07-02T06:00:23;15.60;99.90
21481;DHT22;10902;48.158;8.634;2023-07-02T06:03:09;15.80;99.90
21481;DHT22;10902;48.158;8.634;2023-07-02T06:05:55;15.90;99.90
21481;DHT22;10902;48.158;8.634;2023-07-02T06:08:40;16.10;99.90
21481;DHT22;10902;48.158;8.634;2023-07-02T06:11:26;16.40;99.90
21481;DHT22;10902;48.158;8.634;2023-07-02T06:14:11;16.40;99.90
21481;DHT22;10902;48.158;8.634;2023-07-02T06:16:57;16.50;99.90
21481;DHT22;10902;48.158;8.634;2023-07-02T06:19:44;16.60;99.90
21481;DHT22;10902;48.158;8.634;2023-07-02T06:22:30;16.50;99.90
21481;DHT22;10902;48.158;8.634;2023-07-02T06:25:16;16.50;99.90
21481;DHT22;10902;48.158;8.634;2023-07-02T06:28:02;16.50;99.90
21481;DHT22;10902;48.158;8.634;2023-07-02T06:30:47;16.60;99.90
21481;DHT22;10902;48.158;8.634;2023-07-02T06:33:33;16.80;99.90
21481;DHT22;10902;48.158;8.634;2023-07-02T06:36:19;17.10;99.90
21481;DHT22;10902;48.158;8.634;2023-07-02T06:39:05;17.00;99.90
21481;DHT22;10902;48.158;8.634;2023-07-02T06:41:50;17.30;99.90
21481;DHT22;10902;48.158;8.634;2023-07-02T06:44:36;17.50;99.90
21481;DHT22;10902;48.158;8.634;2023-07-02T06:47:21;17.00;99.90
21481;DHT22;10902;48.158;8.634;2023-07-02T06:50:07;16.20;99.90
21481;DHT22;10902;48.158;8.634;2023-07-02T06:52:53;16.40;99.90
21481;DHT22;10902;48.158;8.634;2023-07-02T06:55:39;16.50;99.90
21481;DHT22;10902;48.158;8.634;2023-07-02T06:58:25;16.60;99.90
21481;DHT22;10902;48.158;8.634;2023-07-02T07:01:11;16.70;99.90
21481;DHT22;10902;48.158;8.634;2023-07-02T07:03:56;16.60;99.90
21481;DHT22;10902;48.158;8.634;2023-07-02T07:06:42;17.00;99.90
21481;DHT22;10902;48.158;8.634;2023-07-02T07:09:29;17.10;99.90
21481;DHT22;10902;48.158;8.634;2023-07-02T07:12:14;16.90;99.90
21481;DHT22;10902;48.158;8.634;2023-07-02T07:15:00;16.60;99.90
21481;DHT22;10902;48.158;8.634;2023-07-02T07:17:45;16.70;99.90
21481;DHT22;10902;48.158;8.634;2023-07-02T07:20:31;17.20;99.90
21481;DHT22;10902;48.158;8.634;2023-07-02T07:23:17;17.50;99.90
21481;DHT22;10902;48.158;8.634;2023-07-02T07:26:02;17.50;99.90
21481;DHT22;10902;48.158;8.634;2023-07-02T07:28:48;17.60;99.90
21481;DHT22;10902;48.158;8.634;2023-07-02T07:31:34;17.50;99.90
21481;DHT22;10902;48.158;8.634;2023-07-02T07:34:20;17.00;99.90
21481;DHT22;10902;48.158;8.634;2023-07-02T07:37:05;16.40;99.90
21481;DHT22;10902;48.158;8.634;2023-07-02T07:39:51;17.00;99.90
21481;DHT22;10902;48.158;8.634;2023-07-02T07:42:37;17.30;99.90
21481;DHT22;10902;48.158;8.634;2023-07-02T07:45:22;17.20;99.90
21481;DHT22;10902;48.158;8.634;2023-07-02T07:48:08;17.20;99.90
21481;DHT22;10902;48.158;8.634;2023-07-02T07:50:54;16.90;99.90
21481;DHT22;10902;48.158;8.634;2023-07-02T07:53:39;16.90;99.90
21481;DHT22;10902;48.158;8.634;2023-07-02T07:56:25;17.10;99.90
21481;DHT22;10902;48.158;8.634;2023-07-02T07:59:10;17.30;99.90
21481;DHT22;10902;48.158;8.634;2023-07-02T08:01:58;17.50;99.90
21481;DHT22;10902;48.158;8.634;2023-07-02T08:04:44;17.50;99.90
21481;DHT22;10902;48.158;8.634;2023-07-02T08:07:31;17.20;99.90
21481;DHT22;10902;48.158;8.634;2023-07-02T08:10:17;17.50;99.90
21481;DHT22;10902;48.158;8.634;2023-07-02T08:13:02;17.80;99.90
21481;DHT22;10902;48.158;8.634;2023-07-02T08:15:48;17.80;99.90
21481;DHT22;10902;48.158;8.634;2023-07-02T08:18:34;17.60;99.90
21481;DHT22;10902;48.158;8.634;2023-07-02T08:21:19;17.60;99.90
21481;DHT22;10902;48.158;8.634;2023-07-02T08:24:05;17.90;99.90
21481;DHT22;10902;48.158;8.634;2023-07-02T08:26:51;18.10;99.90
21481;DHT22;10902;48.158;8.634;2023-07-02T08:29:37;17.50;99.90
21481;DHT22;10902;48.158;8.634;2023-07-02T08:32:22;17.30;99.90
21481;DHT22;10902;48.158;8.634;2023-07-02T08:35:08;17.60;99.90
21481;DHT22;10902;48.158;8.634;2023-07-02T08:37:54;17.60;99.90
21481;DHT22;10902;48.158;8.634;2023-07-02T08:40:39;17.60;99.90
21481;DHT22;10902;48.158;8.634;2023-07-02T08:43:26;17.90;99.90
21481;DHT22;10902;48.158;8.634;2023-07-02T08:46:12;18.00;99.90
21481;DHT22;10902;48.158;8.634;2023-07-02T08:49:00;18.00;99.90
21481;DHT22;10902;48.158;8.634;2023-07-02T08:51:46;18.10;99.90
21481;DHT22;10902;48.158;8.634;2023-07-02T08:54:32;18.20;99.90
21481;DHT22;10902;48.158;8.634;2023-07-02T08:57:17;18.10;99.90
21481;DHT22;10902;48.158;8.634;2023-07-02T09:00:10;17.90;99.90
21481;DHT22;10902;48.158;8.634;2023-07-02T09:02:56;17.70;99.90
21481;DHT22;10902;48.158;8.634;2023-07-02T09:05:51;18.50;99.90
21481;DHT22;10902;48.158;8.634;2023-07-02T09:08:38;18.90;99.90
21481;DHT22;10902;48.158;8.634;2023-07-02T09:11:24;18.70;99.90
21481;DHT22;10902;48.158;8.634;2023-07-02T09:14:09;18.70;99.90
21481;DHT22;10902;48.158;8.634;2023-07-02T09:17:05;18.60;99.90
21481;DHT22;10902;48.158;8.634;2023-07-02T09:19:51;18.80;99.90
21481;DHT22;10902;48.158;8.634;2023-07-02T09:22:37;19.60;99.90
21481;DHT22;10902;48.158;8.634;2023-07-02T09:25:37;18.90;99.90
21481;DHT22;10902;48.158;8.634;2023-07-02T09:28:23;19.30;99.90
21481;DHT22;10902;48.158;8.634;2023-07-02T09:31:09;19.30;99.90
21481;DHT22;10902;48.158;8.634;2023-07-02T09:34:01;19.80;99.90
21481;DHT22;10902;48.158;8.634;2023-07-02T09:36:47;20.20;99.90
21481;DHT22;10902;48.158;8.634;2023-07-02T09:39:35;20.10;99.90
21481;DHT22;10902;48.158;8.634;2023-07-02T09:42:21;20.20;99.90
21481;DHT22;10902;48.158;8.634;2023-07-02T09:45:08;19.40;99.90
21481;DHT22;10902;48.158;8.634;2023-07-02T09:47:56;19.70;99.90
21481;DHT22;10902;48.158;8.634;2023-07-02T09:50:48;19.90;99.90
21481;DHT22;10902;48.158;8.634;2023-07-02T09:53:34;18.40;99.90
21481;DHT22;10902;48.158;8.634;2023-07-02T09:56:19;18.50;99.90
21481;DHT22;10902;48.158;8.634;2023-07-02T09:59:06;19.20;99.90
21481;DHT22;10902;48.158;8.634;2023-07-02T10:01:52;19.40;99.90
21481;DHT22;10902;48.158;8.634;2023-07-02T10:04:43;20.00;99.90
21481;DHT22;10902;48.158;8.634;2023-07-02T10:07:30;19.00;99.90
21481;DHT22;10902;48.158;8.634;2023-07-02T10:10:30;19.70;99.90
21481;DHT22;10902;48.158;8.634;2023-07-02T10:13:26;19.60;99.90
21481;DHT22;10902;48.158;8.634;2023-07-02T10:16:12;19.50;99.90
21481;DHT22;10902;48.158;8.634;2023-07-02T10:19:13;20.10;99.90
21481;DHT22;10902;48.158;8.634;2023-07-02T10:22:03;20.00;99.90
21481;DHT22;10902;48.158;8.634;2023-07-02T10:24:59;20.60;99.90
21481;DHT22;10902;48.158;8.634;2023-07-02T10:27:48;20.80;99.90
21481;DHT22;10902;48.158;8.634;2023-07-02T10:30:37;20.40;99.90
21481;DHT22;10902;48.158;8.634;2023-07-02T10:33:22;20.90;99.90
21481;DHT22;10902;48.158;8.634;2023-07-02T10:36:21;20.80;99.90
21481;DHT22;10902;48.158;8.634;2023-07-02T10:39:08;20.80;99.90
21481;DHT22;10902;48.158;8.634;2023-07-02T10:42:12;20.80;99.90
21481;DHT22;10902;48.158;8.634;2023-07-02T10:44:57;21.30;99.90
21481;DHT22;10902;48.158;8.634;2023-07-02T10:47:44;20.90;99.90
21481;DHT22;10902;48.158;8.634;2023-07-02T10:50:30;21.00;99.90
21481;DHT22;10902;48.158;8.634;2023-07-02T10:53:18;21.30;99.90
21481;DHT22;10902;48.158;8.634;2023-07-02T10:56:04;21.00;99.90
21481;DHT22;10902;48.158;8.634;2023-07-02T10:58:50;21.30;99.90
21481;DHT22;10902;48.158;8.634;2023-07-02T11:01:37;21.30;99.90
21481;DHT22;10902;48.158;8.634;2023-07-02T11:04:22;21.80;99.90
21481;DHT22;10902;48.158;8.634;2023-07-02T11:07:10;21.50;99.90
21481;DHT22;10902;48.158;8.634;2023-07-02T11:09:56;21.30;99.90
21481;DHT22;10902;48.158;8.634;2023-07-02T11:12:42;21.00;99.90
21481;DHT22;10902;48.158;8.634;2023-07-02T11:15:35;21.70;99.90
21481;DHT22;10902;48.158;8.634;2023-07-02T11:18:21;22.10;99.90
21481;DHT22;10902;48.158;8.634;2023-07-02T11:21:10;21.90;99.90
21481;DHT22;10902;48.158;8.634;2023-07-02T11:24:06;21.50;99.90
21481;DHT22;10902;48.158;8.634;2023-07-02T11:26:53;21.40;99.90
21481;DHT22;10902;48.158;8.634;2023-07-02T11:29:39;21.30;99.90
21481;DHT22;10902;48.158;8.634;2023-07-02T11:32:25;21.40;99.90
21481;DHT22;10902;48.158;8.634;2023-07-02T11:35:10;21.50;99.90
21481;DHT22;10902;48.158;8.634;2023-07-02T11:37:56;21.50;99.90
21481;DHT22;10902;48.158;8.634;2023-07-02T11:40:41;21.10;99.90
21481;DHT22;10902;48.158;8.634;2023-07-02T11:43:27;22.00;99.90
21481;DHT22;10902;48.158;8.634;2023-07-02T11:46:13;22.30;99.90
21481;DHT22;10902;48.158;8.634;2023-07-02T11:49:03;22.40;99.90
21481;DHT22;10902;48.158;8.634;2023-07-02T11:51:55;23.10;99.90
21481;DHT22;10902;48.158;8.634;2023-07-02T11:54:40;22.40;99.90
21481;DHT22;10902;48.158;8.634;2023-07-02T11:57:26;21.80;99.90
21481;DHT22;10902;48.158;8.634;2023-07-02T12:00:12;21.60;99.90
21481;DHT22;10902;48.158;8.634;2023-07-02T12:02:57;21.90;99.90
21481;DHT22;10902;48.158;8.634;2023-07-02T12:05:43;23.00;99.90
21481;DHT22;10902;48.158;8.634;2023-07-02T12:08:28;23.50;99.90
21481;DHT22;10902;48.158;8.634;2023-07-02T12:11:14;23.80;99.90
21481;DHT22;10902;48.158;8.634;2023-07-02T12:14:01;23.00;99.90
21481;DHT22;10902;48.158;8.634;2023-07-02T12:16:46;23.40;99.90
21481;DHT22;10902;48.158;8.634;2023-07-02T12:19:32;24.50;99.90
21481;DHT22;10902;48.158;8.634;2023-07-02T12:22:18;22.90;99.90
21481;DHT22;10902;48.158;8.634;2023-07-02T12:25:04;22.90;99.90
21481;DHT22;10902;48.158;8.634;2023-07-02T12:27:50;23.50;99.90
21481;DHT22;10902;48.158;8.634;2023-07-02T12:30:35;24.00;99.90
21481;DHT22;10902;48.158;8.634;2023-07-02T12:33:21;23.70;99.90
21481;DHT22;10902;48.158;8.634;2023-07-02T12:36:07;23.60;99.90
21481;DHT22;10902;48.158;8.634;2023-07-02T12:38:52;23.00;99.90
21481;DHT22;10902;48.158;8.634;2023-07-02T12:41:38;23.70;99.90
21481;DHT22;10902;48.158;8.634;2023-07-02T12:44:23;23.60;99.90
21481;DHT22;10902;48.158;8.634;2023-07-02T12:47:09;22.80;99.90
21481;DHT22;10902;48.158;8.634;2023-07-02T12:49:55;22.00;99.90
21481;DHT22;10902;48.158;8.634;2023-07-02T12:52:40;21.90;99.90
21481;DHT22;10902;48.158;8.634;2023-07-02T12:55:26;21.70;99.90
21481;DHT22;10902;48.158;8.634;2023-07-02T12:58:12;21.50;99.90
21481;DHT22;10902;48.158;8.634;2023-07-02T13:00:57;22.30;99.90
21481;DHT22;10902;48.158;8.634;2023-07-02T13:03:47;22.80;99.90
21481;DHT22;10902;48.158;8.634;2023-07-02T13:06:32;22.40;99.90
21481;DHT22;10902;48.158;8.634;2023-07-02T13:09:25;23.70;99.90
21481;DHT22;10902;48.158;8.634;2023-07-02T13:12:11;22.90;99.90
21481;DHT22;10902;48.158;8.634;2023-07-02T13:14:57;22.90;99.90
21481;DHT22;10902;48.158;8.634;2023-07-02T13:17:43;22.60;99.90
21481;DHT22;10902;48.158;8.634;2023-07-02T13:20:29;22.10;99.90
21481;DHT22;10902;48.158;8.634;2023-07-02T13:23:15;22.00;99.90
21481;DHT22;10902;48.158;8.634;2023-07-02T13:26:01;21.90;99.90
21481;DHT22;10902;48.158;8.634;2023-07-02T13:28:46;21.90;99.90
21481;DHT22;10902;48.158;8.634;2023-07-02T13:31:33;21.60;99.90
21481;DHT22;10902;48.158;8.634;2023-07-02T13:34:18;21.60;99.90
21481;DHT22;10902;48.158;8.634;2023-07-02T13:37:04;22.90;99.90
21481;DHT22;10902;48.158;8.634;2023-07-02T13:39:50;24.80;99.90
21481;DHT22;10902;48.158;8.634;2023-07-02T13:42:36;25.60;99.90
21481;DHT22;10902;48.158;8.634;2023-07-02T13:45:22;24.50;99.90
21481;DHT22;10902;48.158;8.634;2023-07-02T13:48:07;22.80;99.90
21481;DHT22;10902;48.158;8.634;2023-07-02T13:50:53;23.90;99.90
21481;DHT22;10902;48.158;8.634;2023-07-02T13:53:39;24.70;99.90
21481;DHT22;10902;48.158;8.634;2023-07-02T13:56:25;25.30;99.90
21481;DHT22;10902;48.158;8.634;2023-07-02T13:59:10;25.30;99.90
21481;DHT22;10902;48.158;8.634;2023-07-02T14:01:56;24.90;99.90
21481;DHT22;10902;48.158;8.634;2023-07-02T14:04:41;25.30;99.90
21481;DHT22;10902;48.158;8.634;2023-07-02T14:07:27;25.80;99.90
21481;DHT22;10902;48.158;8.634;2023-07-02T14:10:13;24.50;99.90
21481;DHT22;10902;48.158;8.634;2023-07-02T14:12:58;22.70;99.90
21481;DHT22;10902;48.158;8.634;2023-07-02T14:15:44;22.40;99.90
21481;DHT22;10902;48.158;8.634;2023-07-02T14:18:30;23.20;99.90
21481;DHT22;10902;48.158;8.634;2023-07-02T14:21:15;22.80;99.90
21481;DHT22;10902;48.158;8.634;2023-07-02T14:24:01;24.20;99.90
21481;DHT22;10902;48.158;8.634;2023-07-02T14:26:46;23.10;99.90
21481;DHT22;10902;48.158;8.634;2023-07-02T14:29:32;24.30;99.90
21481;DHT22;10902;48.158;8.634;2023-07-02T14:32:18;24.10;99.90
21481;DHT22;10902;48.158;8.634;2023-07-02T14:35:04;24.90;99.90
21481;DHT22;10902;48.158;8.634;2023-07-02T14:37:49;24.70;99.90
21481;DHT22;10902;48.158;8.634;2023-07-02T14:40:35;25.30;99.90
21481;DHT22;10902;48.158;8.634;2023-07-02T14:43:27;25.30;99.90
21481;DHT22;10902;48.158;8.634;2023-07-02T14:46:13;24.90;99.90
21481;DHT22;10902;48.158;8.634;2023-07-02T14:48:59;24.90;99.90
21481;DHT22;10902;48.158;8.634;2023-07-02T14:51:44;25.50;99.90
21481;DHT22;10902;48.158;8.634;2023-07-02T14:54:30;26.00;99.90
21481;DHT22;10902;48.158;8.634;2023-07-02T14:57:15;25.20;99.90
21481;DHT22;10902;48.158;8.634;2023-07-02T15:00:03;25.30;99.90
21481;DHT22;10902;48.158;8.634;2023-07-02T15:02:48;24.80;99.90
21481;DHT22;10902;48.158;8.634;2023-07-02T15:05:34;23.50;99.90
21481;DHT22;10902;48.158;8.634;2023-07-02T15:08:20;22.60;99.90
21481;DHT22;10902;48.158;8.634;2023-07-02T15:11:07;23.50;99.90
21481;DHT22;10902;48.158;8.634;2023-07-02T15:13:53;23.30;99.90
21481;DHT22;10902;48.158;8.634;2023-07-02T15:16:38;22.50;99.90
21481;DHT22;10902;48.158;8.634;2023-07-02T15:19:24;22.90;99.90
21481;DHT22;10902;48.158;8.634;2023-07-02T15:22:09;22.50;99.90
21481;DHT22;10902;48.158;8.634;2023-07-02T15:24:55;22.50;99.90
21481;DHT22;10902;48.158;8.634;2023-07-02T15:27:41;22.10;99.90
21481;DHT22;10902;48.158;8.634;2023-07-02T15:30:26;22.40;99.90
21481;DHT22;10902;48.158;8.634;2023-07-02T15:33:13;23.70;99.90
21481;DHT22;10902;48.158;8.634;2023-07-02T15:36:00;23.50;99.90
21481;DHT22;10902;48.158;8.634;2023-07-02T15:38:46;23.40;99.90
21481;DHT22;10902;48.158;8.634;2023-07-02T15:41:32;23.70;99.90
21481;DHT22;10902;48.158;8.634;2023-07-02T15:44:19;25.10;99.90
21481;DHT22;10902;48.158;8.634;2023-07-02T15:47:05;24.40;99.90
21481;DHT22;10902;48.158;8.634;2023-07-02T15:49:50;23.00;99.90
21481;DHT22;10902;48.158;8.634;2023-07-02T15:52:36;23.60;99.90
21481;DHT22;10902;48.158;8.634;2023-07-02T15:55:22;24.70;99.90
21481;DHT22;10902;48.158;8.634;2023-07-02T15:58:07;23.60;99.90
21481;DHT22;10902;48.158;8.634;2023-07-02T16:00:53;23.70;99.90
21481;DHT22;10902;48.158;8.634;2023-07-02T16:03:39;24.70;99.90
21481;DHT22;10902;48.158;8.634;2023-07-02T16:06:25;24.80;99.90
21481;DHT22;10902;48.158;8.634;2023-07-02T16:09:16;24.40;99.90
21481;DHT22;10902;48.158;8.634;2023-07-02T16:12:02;23.00;99.90
21481;DHT22;10902;48.158;8.634;2023-07-02T16:14:50;23.20;99.90
21481;DHT22;10902;48.158;8.634;2023-07-02T16:17:36;22.20;99.90
21481;DHT22;10902;48.158;8.634;2023-07-02T16:20:21;22.80;99.90
21481;DHT22;10902;48.158;8.634;2023-07-02T16:23:07;24.30;99.90
21481;DHT22;10902;48.158;8.634;2023-07-02T16:25:59;25.50;99.90
21481;DHT22;10902;48.158;8.634;2023-07-02T16:28:46;23.90;99.90
21481;DHT22;10902;48.158;8.634;2023-07-02T16:31:32;23.40;99.90
21481;DHT22;10902;48.158;8.634;2023-07-02T16:34:17;23.20;99.90
21481;DHT22;10902;48.158;8.634;2023-07-02T16:37:03;23.20;99.90
21481;DHT22;10902;48.158;8.634;2023-07-02T16:39:50;23.80;99.90
21481;DHT22;10902;48.158;8.634;2023-07-02T16:42:35;24.90;99.90
21481;DHT22;10902;48.158;8.634;2023-07-02T16:45:21;25.20;99.90
21481;DHT22;10902;48.158;8.634;2023-07-02T16:48:06;25.60;99.90
21481;DHT22;10902;48.158;8.634;2023-07-02T16:51:03;25.70;99.90
21481;DHT22;10902;48.158;8.634;2023-07-02T16:53:49;23.90;99.90
21481;DHT22;10902;48.158;8.634;2023-07-02T16:56:35;23.70;99.90
21481;DHT22;10902;48.158;8.634;2023-07-02T16:59:23;25.00;99.90
21481;DHT22;10902;48.158;8.634;2023-07-02T17:02:09;24.90;99.90
21481;DHT22;10902;48.158;8.634;2023-07-02T17:04:55;24.80;99.90
21481;DHT22;10902;48.158;8.634;2023-07-02T17:07:41;24.50;99.90
21481;DHT22;10902;48.158;8.634;2023-07-02T17:10:27;23.70;99.90
21481;DHT22;10902;48.158;8.634;2023-07-02T17:13:12;23.80;99.90
21481;DHT22;10902;48.158;8.634;2023-07-02T17:15:58;23.90;99.90
21481;DHT22;10902;48.158;8.634;2023-07-02T17:18:44;23.10;99.90
21481;DHT22;10902;48.158;8.634;2023-07-02T17:21:29;23.80;99.90
21481;DHT22;10902;48.158;8.634;2023-07-02T17:24:15;23.90;99.90
21481;DHT22;10902;48.158;8.634;2023-07-02T17:27:01;24.00;99.90
21481;DHT22;10902;48.158;8.634;2023-07-02T17:29:53;24.30;99.90